Time;durP1;ratioP1;P1;durP2;ratioP2;P2;SDS_P1;SDS_P2;PMS_P1;PMS_P2;Temp;Humidity;BMP_temperature;BMP_pressure;BME280_temperature;BME280_humidity;BME280_pressure;Samples;Min_cycle;Max_cycle;Signal;HPM_P1;HPM_P2
2021/04/27 00:02:21;;;;;;;1.38;0.80;;;9.80;38.30;;;;;;5051976;28;20020;-77
2021/04/27 00:04:46;;;;;;;3.03;1.20;;;9.90;38.30;;;;;;5052958;28;20066;-78
2021/04/27 00:07:12;;;;;;;2.15;0.82;;;9.80;38.90;;;;;;5052546;28;20132;-78
2021/04/27 00:09:38;;;;;;;2.13;0.75;;;9.90;38.60;;;;;;5053136;28;20032;-77
2021/04/27 00:12:05;;;;;;;3.05;0.77;;;10.00;38.50;;;;;;5052503;28;20028;-78
2021/04/27 00:14:31;;;;;;;1.50;0.88;;;10.00;39.10;;;;;;5053587;28;20021;-78
2021/04/27 00:16:57;;;;;;;1.63;0.80;;;9.90;39.10;;;;;;5053601;28;20017;-77
2021/04/27 00:19:23;;;;;;;1.83;0.98;;;9.90;38.60;;;;;;5051843;28;20094;-77
2021/04/27 00:21:48;;;;;;;2.08;0.80;;;9.90;38.40;;;;;;5052446;28;20123;-77
2021/04/27 00:24:14;;;;;;;2.17;0.75;;;9.90;38.90;;;;;;5051784;28;20056;-78
2021/04/27 00:26:40;;;;;;;1.40;0.70;;;9.80;39.10;;;;;;5052692;28;20021;-77
2021/04/27 00:29:06;;;;;;;1.48;0.95;;;9.70;39.60;;;;;;5052321;28;20455;-77
2021/04/27 00:31:33;;;;;;;1.65;0.77;;;9.70;39.40;;;;;;5052338;28;20052;-77
2021/04/27 00:33:58;;;;;;;1.33;0.70;;;9.60;39.40;;;;;;5052293;28;20457;-78
2021/04/27 00:36:26;;;;;;;2.45;1.00;;;9.60;40.20;;;;;;5051613;28;20043;-78
2021/04/27 00:38:51;;;;;;;1.30;0.73;;;9.60;39.70;;;;;;5050942;28;20057;-78
2021/04/27 00:41:17;;;;;;;1.17;0.88;;;9.60;40.10;;;;;;5051477;28;20480;-78
2021/04/27 00:43:43;;;;;;;1.92;1.00;;;9.60;40.10;;;;;;5053441;28;20465;-77
2021/04/27 00:46:08;;;;;;;1.80;1.00;;;9.50;40.20;;;;;;5052739;28;20025;-78
2021/04/27 00:48:34;;;;;;;1.50;0.85;;;9.50;40.50;;;;;;5051975;28;20031;-78
2021/04/27 00:51:01;;;;;;;2.03;1.00;;;9.50;40.60;;;;;;5051841;28;20021;-77
2021/04/27 00:53:28;;;;;;;2.95;0.93;;;9.50;40.80;;;;;;5051437;28;20017;-78
2021/04/27 00:55:54;;;;;;;1.50;0.80;;;9.50;40.70;;;;;;5051711;28;20047;-77
2021/04/27 00:58:21;;;;;;;1.38;0.88;;;9.50;40.60;;;;;;5052396;28;20021;-78
2021/04/27 01:00:49;;;;;;;1.30;0.95;;;9.50;40.40;;;;;;5051615;28;20120;-78
2021/04/27 01:03:15;;;;;;;1.38;0.80;;;9.50;40.80;;;;;;5051007;28;20078;-78
2021/04/27 01:05:42;;;;;;;2.65;1.00;;;9.40;41.00;;;;;;5051837;28;20029;-78
2021/04/27 01:08:23;;;;;;;0.77;0.70;;;9.30;41.20;;;;;;5052738;28;20067;-78
2021/04/27 01:11:01;;;;;;;1.77;0.90;;;9.40;41.10;;;;;;5053043;28;20099;-77
2021/04/27 01:13:33;;;;;;;2.15;1.13;;;9.40;41.10;;;;;;5050877;28;20049;-78
2021/04/27 01:16:00;;;;;;;1.33;0.82;;;9.30;41.70;;;;;;5051602;28;20079;-78
2021/04/27 01:18:32;;;;;;;1.45;0.80;;;9.30;41.80;;;;;;5051190;28;20036;-78
2021/04/27 01:20:58;;;;;;;;;;;9.20;41.80;;;;;;5052575;28;20021;-77
2021/04/27 01:23:30;;;;;;;2.97;0.82;;;9.30;41.80;;;;;;5051319;28;19901;-77
2021/04/27 01:26:24;;;;;;;1.65;1.00;;;9.20;41.70;;;;;;5053062;28;20021;-77
2021/04/27 01:28:51;;;;;;;1.40;0.95;;;9.20;42.10;;;;;;5050626;28;20120;-77
2021/04/27 01:31:17;;;;;;;1.48;1.05;;;9.10;41.80;;;;;;5052428;28;20044;-78
2021/04/27 01:33:44;;;;;;;3.20;0.80;;;9.10;42.20;;;;;;5051724;28;20032;-78
2021/04/27 01:36:10;;;;;;;1.27;0.90;;;9.10;42.60;;;;;;5052895;28;20024;-79
2021/04/27 01:38:36;;;;;;;3.17;0.93;;;9.10;42.30;;;;;;5052484;28;20057;-78
2021/04/27 01:41:03;;;;;;;1.65;0.82;;;9.10;42.40;;;;;;5052761;28;20466;-77
2021/04/27 01:43:29;;;;;;;1.55;0.98;;;9.10;42.50;;;;;;5052120;28;20025;-78
2021/04/27 01:46:06;;;;;;;1.48;0.85;;;9.10;42.70;;;;;;5051560;28;20032;-77
2021/04/27 01:48:36;;;;;;;1.98;1.00;;;9.10;42.80;;;;;;5051109;28;20029;-77
2021/04/27 01:51:04;;;;;;;3.88;1.02;;;9.00;43.10;;;;;;5056239;28;20017;-77
2021/04/27 01:53:31;;;;;;;2.65;1.05;;;9.00;43.00;;;;;;5054413;28;20025;-77
2021/04/27 01:55:56;;;;;;;3.65;1.15;;;9.00;42.80;;;;;;5055967;28;20021;-77
2021/04/27 01:58:22;;;;;;;2.88;1.08;;;9.00;42.90;;;;;;5054109;28;20120;-77
2021/04/27 02:00:48;;;;;;;1.60;1.20;;;9.00;43.30;;;;;;5056090;28;20477;-77
2021/04/27 02:03:14;;;;;;;1.73;0.90;;;9.00;43.20;;;;;;5054246;28;20412;-78
2021/04/27 02:05:43;;;;;;;3.00;1.20;;;9.00;42.80;;;;;;5054909;28;20025;-77
2021/04/27 02:08:09;;;;;;;4.32;1.00;;;9.00;43.30;;;;;;5054603;28;20040;-77
2021/04/27 02:10:35;;;;;;;2.50;0.90;;;8.90;42.90;;;;;;5055283;28;20104;-77
2021/04/27 02:13:12;;;;;;;1.17;0.93;;;8.90;43.70;;;;;;5055880;28;20025;-77
2021/04/27 02:15:38;;;;;;;1.38;0.90;;;8.90;43.30;;;;;;5054691;28;20027;-77
2021/04/27 02:18:19;;;;;;;2.67;1.00;;;8.90;43.40;;;;;;5054245;28;20483;-77
2021/04/27 02:20:46;;;;;;;1.98;1.00;;;8.90;43.60;;;;;;5054254;28;20043;-77
2021/04/27 02:23:13;;;;;;;1.73;1.08;;;8.90;43.80;;;;;;5054341;28;20032;-77
2021/04/27 02:25:41;;;;;;;2.40;1.25;;;8.80;43.50;;;;;;5055149;28;20461;-78
2021/04/27 02:28:08;;;;;;;3.60;0.90;;;8.80;43.90;;;;;;5055467;28;20025;-77
2021/04/27 02:30:34;;;;;;;2.47;0.88;;;8.80;44.10;;;;;;5053863;28;20377;-77
2021/04/27 02:33:00;;;;;;;2.45;1.02;;;8.70;43.70;;;;;;5055201;28;20025;-77
2021/04/27 02:35:25;;;;;;;2.10;1.00;;;8.70;44.00;;;;;;5053798;28;20067;-78
2021/04/27 02:37:52;;;;;;;1.25;0.82;;;8.70;43.40;;;;;;5054091;28;20052;-77
2021/04/27 02:40:26;;;;;;;2.10;0.90;;;8.70;43.80;;;;;;5055189;28;20032;-78
2021/04/27 02:42:55;;;;;;;2.67;0.90;;;8.70;44.10;;;;;;5054286;28;20027;-77
2021/04/27 02:45:21;;;;;;;3.40;0.93;;;8.70;44.10;;;;;;5053880;28;20028;-78
2021/04/27 02:47:47;;;;;;;2.15;0.95;;;8.70;43.80;;;;;;5055662;28;20029;-78
2021/04/27 02:50:15;;;;;;;1.40;1.10;;;8.70;44.00;;;;;;5054093;28;20453;-78
2021/04/27 02:52:41;;;;;;;2.53;0.93;;;8.70;43.80;;;;;;5054247;28;20017;-78
2021/04/27 02:55:09;;;;;;;2.45;0.90;;;8.70;44.50;;;;;;5054035;28;20412;-78
2021/04/27 02:57:35;;;;;;;2.90;1.00;;;8.60;44.30;;;;;;5053349;28;20247;-77
2021/04/27 03:00:01;;;;;;;2.35;1.05;;;8.60;44.60;;;;;;5053783;28;20029;-77
2021/04/27 03:02:27;;;;;;;2.13;1.02;;;8.60;44.70;;;;;;5053565;28;20025;-77
2021/04/27 03:04:52;;;;;;;1.70;1.00;;;8.50;44.30;;;;;;5053676;28;20373;-77
2021/04/27 03:07:18;;;;;;;3.10;1.00;;;8.50;44.80;;;;;;5054252;28;20389;-78
2021/04/27 03:09:44;;;;;;;1.10;0.80;;;8.50;44.40;;;;;;5054950;28;20029;-77
2021/04/27 03:12:09;;;;;;;2.10;1.00;;;8.50;44.80;;;;;;5054660;28;20027;-77
2021/04/27 03:14:35;;;;;;;2.22;1.00;;;8.50;44.90;;;;;;5052889;28;20090;-78
2021/04/27 03:17:01;;;;;;;2.28;1.20;;;8.50;45.30;;;;;;5053382;28;20530;-77
2021/04/27 03:19:26;;;;;;;1.45;0.90;;;8.50;45.30;;;;;;5052784;28;20029;-78
2021/04/27 03:21:52;;;;;;;3.53;1.02;;;8.50;45.10;;;;;;5053136;28;20060;-77
2021/04/27 03:24:17;;;;;;;2.53;1.00;;;8.40;45.20;;;;;;5052552;28;20032;-78
2021/04/27 03:26:43;;;;;;;2.25;1.00;;;8.30;45.20;;;;;;5054328;28;20017;-77
2021/04/27 03:29:09;;;;;;;2.50;0.95;;;8.30;45.30;;;;;;5053996;28;20032;-77
2021/04/27 03:31:34;;;;;;;2.17;1.00;;;8.30;45.60;;;;;;5052360;28;20025;-77
2021/04/27 03:34:00;;;;;;;2.92;1.10;;;8.30;45.70;;;;;;5052840;28;20017;-77
2021/04/27 03:36:26;;;;;;;3.67;1.05;;;8.30;45.30;;;;;;5052464;28;20358;-77
2021/04/27 03:38:52;;;;;;;1.63;1.00;;;8.30;45.40;;;;;;5054104;28;20539;-77
2021/04/27 03:41:18;;;;;;;2.15;1.02;;;8.30;45.20;;;;;;5053679;28;20473;-79
2021/04/27 03:43:43;;;;;;;2.60;1.15;;;8.30;45.70;;;;;;5053021;28;20461;-78
2021/04/27 03:46:09;;;;;;;1.75;1.00;;;8.30;45.90;;;;;;5052994;28;20021;-77
2021/04/27 03:48:35;;;;;;;1.58;0.90;;;8.30;45.40;;;;;;5053809;28;20442;-77
2021/04/27 03:51:01;;;;;;;1.33;0.90;;;8.30;45.70;;;;;;5054281;28;20024;-77
2021/04/27 03:53:26;;;;;;;2.47;1.33;;;8.20;45.90;;;;;;5053444;28;20029;-77
2021/04/27 03:55:53;;;;;;;2.10;1.10;;;8.20;45.90;;;;;;5053855;28;20044;-77
2021/04/27 03:58:19;;;;;;;2.33;1.10;;;8.20;45.90;;;;;;5052033;28;20048;-79
2021/04/27 04:00:45;;;;;;;2.10;0.88;;;8.20;46.10;;;;;;5054014;28;20024;-77
2021/04/27 04:03:10;;;;;;;2.08;0.98;;;8.20;46.00;;;;;;5053842;28;20028;-77
2021/04/27 04:05:36;;;;;;;2.33;0.70;;;8.10;46.10;;;;;;5052141;28;20057;-78
2021/04/27 04:08:02;;;;;;;1.98;1.02;;;8.10;46.40;;;;;;5052462;28;20079;-78
2021/04/27 04:10:27;;;;;;;2.63;1.13;;;8.10;46.60;;;;;;5052097;28;20032;-78
2021/04/27 04:12:54;;;;;;;1.80;1.05;;;8.10;46.40;;;;;;5052384;28;20435;-77
2021/04/27 04:15:20;;;;;;;1.95;0.90;;;8.10;46.40;;;;;;5052107;28;20020;-79
2021/04/27 04:17:45;;;;;;;3.10;1.00;;;8.00;46.10;;;;;;5052556;28;20025;-77
2021/04/27 04:20:21;;;;;;;3.07;1.40;;;7.90;46.90;;;;;;5053362;28;20464;-77
2021/04/27 04:22:49;;;;;;;4.13;1.20;;;7.90;46.60;;;;;;5052092;28;20048;-77
2021/04/27 04:25:16;;;;;;;2.23;0.90;;;7.90;46.90;;;;;;5051556;28;20516;-77
2021/04/27 04:27:42;;;;;;;2.03;1.10;;;7.90;46.70;;;;;;5051237;28;20021;-77
2021/04/27 04:30:10;;;;;;;2.65;1.10;;;8.00;47.30;;;;;;5053051;28;20442;-77
2021/04/27 04:32:35;;;;;;;2.95;1.20;;;7.90;46.20;;;;;;5051321;28;20105;-77
2021/04/27 04:35:01;;;;;;;3.53;1.50;;;8.00;46.80;;;;;;5051723;28;20052;-77
2021/04/27 04:37:30;;;;;;;1.53;1.13;;;8.00;46.90;;;;;;5052294;28;20062;-77
2021/04/27 04:39:55;;;;;;;1.93;1.00;;;8.00;47.10;;;;;;5051113;28;20401;-77
2021/04/27 04:42:21;;;;;;;2.30;0.93;;;7.90;46.90;;;;;;5051453;28;20028;-79
2021/04/27 04:44:47;;;;;;;1.58;1.00;;;8.00;46.90;;;;;;5051799;28;20034;-77
2021/04/27 04:47:12;;;;;;;3.25;0.85;;;8.00;47.10;;;;;;5051762;28;20017;-77
2021/04/27 04:49:38;;;;;;;2.78;1.10;;;8.00;46.40;;;;;;5052425;28;20035;-77
2021/04/27 04:52:04;;;;;;;2.17;1.00;;;8.10;46.70;;;;;;5052861;28;20078;-77
2021/04/27 04:54:30;;;;;;;1.10;0.88;;;8.10;46.60;;;;;;5051260;28;20029;-77
2021/04/27 04:56:55;;;;;;;3.23;1.40;;;8.10;46.40;;;;;;5052905;28;20362;-77
2021/04/27 04:59:22;;;;;;;1.47;0.83;;;8.10;46.70;;;;;;5051722;28;20446;-77
2021/04/27 05:01:47;;;;;;;2.50;1.10;;;8.10;47.30;;;;;;5052466;28;20021;-77
2021/04/27 05:04:13;;;;;;;2.05;1.10;;;8.10;47.20;;;;;;5051744;28;20027;-77
2021/04/27 05:06:42;;;;;;;2.83;1.10;;;8.10;47.10;;;;;;5051112;28;20086;-77
2021/04/27 05:09:09;;;;;;;2.90;1.45;;;8.10;46.40;;;;;;5051535;28;20036;-77
2021/04/27 05:11:35;;;;;;;1.83;1.23;;;8.10;47.20;;;;;;5052242;28;20023;-77
2021/04/27 05:14:01;;;;;;;3.05;1.23;;;8.00;47.40;;;;;;5051673;28;20112;-77
2021/04/27 05:16:28;;;;;;;2.20;1.17;;;8.10;46.80;;;;;;5051148;28;20127;-77
2021/04/27 05:18:54;;;;;;;1.70;1.00;;;8.10;46.60;;;;;;5052808;28;20078;-77
2021/04/27 05:21:20;;;;;;;2.07;1.00;;;8.10;46.90;;;;;;5051508;28;20025;-76
2021/04/27 05:23:46;;;;;;;2.15;1.20;;;8.10;46.20;;;;;;5051112;28;20523;-77
2021/04/27 05:26:12;;;;;;;1.80;1.10;;;8.10;46.20;;;;;;5056650;28;20024;-77
2021/04/27 05:28:38;;;;;;;2.23;1.23;;;8.10;46.90;;;;;;5054865;28;20466;-77
2021/04/27 05:31:04;;;;;;;1.02;0.88;;;8.10;47.20;;;;;;5056584;28;20017;-77
2021/04/27 05:33:30;;;;;;;1.70;0.98;;;8.10;46.30;;;;;;5055519;28;20092;-77
2021/04/27 05:35:55;;;;;;;4.35;1.30;;;8.10;46.30;;;;;;5055203;28;20524;-77
2021/04/27 05:38:21;;;;;;;4.90;1.23;;;8.20;46.80;;;;;;5055979;28;20523;-77
2021/04/27 05:40:47;;;;;;;6.45;1.38;;;8.30;46.80;;;;;;5054634;28;20037;-77
2021/04/27 05:43:13;;;;;;;2.03;1.00;;;8.20;46.70;;;;;;5054972;28;20075;-77
2021/04/27 05:45:39;;;;;;;2.20;1.00;;;8.20;46.80;;;;;;5054421;28;20048;-77
2021/04/27 05:48:05;;;;;;;1.52;0.80;;;8.20;47.30;;;;;;5054844;28;20115;-77
2021/04/27 05:50:30;;;;;;;1.33;0.80;;;8.30;47.00;;;;;;5055713;28;20017;-79
2021/04/27 05:52:56;;;;;;;5.05;1.20;;;8.30;46.70;;;;;;5056477;28;20058;-78
2021/04/27 05:55:22;;;;;;;3.75;0.93;;;8.40;46.60;;;;;;5056279;28;20055;-78
2021/04/27 05:57:48;;;;;;;2.42;1.20;;;8.40;46.60;;;;;;5054538;28;20218;-78
2021/04/27 06:00:15;;;;;;;2.70;1.17;;;8.40;46.70;;;;;;5054896;28;20024;-78
2021/04/27 06:02:41;;;;;;;1.75;1.00;;;8.40;47.20;;;;;;5054338;28;20047;-78
2021/04/27 06:05:08;;;;;;;2.15;1.00;;;8.50;46.30;;;;;;5056061;28;20021;-77
2021/04/27 06:07:34;;;;;;;2.35;1.10;;;8.40;46.80;;;;;;5054048;28;20437;-77
2021/04/27 06:10:00;;;;;;;1.05;0.85;;;8.40;46.50;;;;;;5054787;28;20093;-77
2021/04/27 06:12:25;;;;;;;3.30;1.35;;;8.40;46.60;;;;;;5055638;28;20407;-77
2021/04/27 06:14:51;;;;;;;2.37;1.17;;;8.50;47.10;;;;;;5054060;28;20056;-77
2021/04/27 06:17:16;;;;;;;2.47;1.00;;;8.40;46.90;;;;;;5055651;28;20357;-77
2021/04/27 06:19:42;;;;;;;3.35;1.30;;;8.50;47.30;;;;;;5053981;28;20450;-77
2021/04/27 06:22:08;;;;;;;2.70;1.02;;;8.50;47.70;;;;;;5053608;28;20106;-77
2021/04/27 06:24:33;;;;;;;1.40;0.90;;;8.60;47.30;;;;;;5054584;28;20047;-79
2021/04/27 06:26:59;;;;;;;2.80;1.07;;;8.60;47.20;;;;;;5054120;28;20021;-77
2021/04/27 06:29:25;;;;;;;2.47;1.45;;;8.60;47.10;;;;;;5054976;28;20025;-78
2021/04/27 06:31:50;;;;;;;2.35;0.88;;;8.60;47.00;;;;;;5054335;28;20017;-78
2021/04/27 06:34:16;;;;;;;1.45;0.95;;;8.60;46.10;;;;;;5053869;28;20017;-78
2021/04/27 06:36:41;;;;;;;2.30;1.27;;;8.60;46.70;;;;;;5053095;28;20071;-75
2021/04/27 06:39:07;;;;;;;3.33;1.30;;;8.70;46.20;;;;;;5051637;28;20045;-74
2021/04/27 06:41:34;;;;;;;1.60;0.97;;;8.70;46.80;;;;;;5040185;28;20071;-74
2021/04/27 06:44:00;;;;;;;5.37;1.40;;;8.70;46.90;;;;;;5032868;28;20029;-74
2021/04/27 06:46:26;;;;;;;3.83;1.10;;;8.70;46.10;;;;;;5031930;28;20076;-75
2021/04/27 06:48:52;;;;;;;3.28;1.30;;;8.70;46.80;;;;;;5032461;28;20029;-73
2021/04/27 06:51:19;;;;;;;3.83;1.30;;;8.70;46.60;;;;;;5033809;28;20096;-74
2021/04/27 06:53:46;;;;;;;2.92;1.20;;;8.70;46.60;;;;;;5032109;28;20026;-74
2021/04/27 06:56:12;;;;;;;3.10;1.10;;;8.80;46.10;;;;;;5031889;28;20022;-74
2021/04/27 06:58:38;;;;;;;2.35;1.40;;;8.80;46.00;;;;;;5042332;28;20021;-75
2021/04/27 07:01:05;;;;;;;2.05;1.10;;;8.80;45.60;;;;;;5052226;28;20025;-73
2021/04/27 07:03:31;;;;;;;3.78;1.10;;;8.80;45.80;;;;;;5053605;28;20029;-74
2021/04/27 07:05:57;;;;;;;3.47;1.20;;;8.90;46.40;;;;;;5052821;28;20021;-73
2021/04/27 07:08:22;;;;;;;3.97;1.20;;;8.90;46.90;;;;;;5064450;28;20101;-73
2021/04/27 07:10:50;;;;;;;4.00;1.35;;;9.10;47.20;;;;;;5071733;28;20412;-74
2021/04/27 07:13:15;;;;;;;4.38;1.25;;;9.10;47.00;;;;;;5071934;28;20032;-73
2021/04/27 07:15:41;;;;;;;1.77;1.00;;;9.10;46.00;;;;;;5072249;28;20016;-74
2021/04/27 07:18:07;;;;;;;6.53;1.55;;;9.20;45.60;;;;;;5063207;28;20025;-75
2021/04/27 07:20:32;;;;;;;2.42;1.00;;;9.10;44.80;;;;;;5051864;28;20036;-75
2021/04/27 07:22:59;;;;;;;3.20;1.40;;;9.20;45.30;;;;;;5051901;28;20024;-74
2021/04/27 07:25:25;;;;;;;2.00;1.05;;;9.20;45.90;;;;;;5052374;28;20507;-75
2021/04/27 07:27:50;;;;;;;1.77;1.13;;;9.20;46.30;;;;;;5051843;28;20064;-73
2021/04/27 07:30:17;;;;;;;3.13;1.10;;;9.20;45.20;;;;;;5051814;28;20021;-75
2021/04/27 07:32:43;;;;;;;2.90;1.35;;;9.20;45.10;;;;;;5051934;28;20043;-77
2021/04/27 07:35:10;;;;;;;4.25;1.33;;;9.30;45.30;;;;;;5051851;28;20017;-77
2021/04/27 07:37:36;;;;;;;3.00;1.30;;;9.30;46.40;;;;;;5051674;28;20467;-77
2021/04/27 07:40:05;;;;;;;1.90;1.45;;;9.50;46.70;;;;;;5053666;28;20492;-77
2021/04/27 07:42:31;;;;;;;3.97;1.60;;;9.50;46.60;;;;;;5053555;28;20025;-79
2021/04/27 07:44:56;;;;;;;2.85;1.30;;;9.60;46.60;;;;;;5051677;28;20400;-77
2021/04/27 07:47:22;;;;;;;3.72;1.30;;;9.60;45.90;;;;;;5051373;28;20021;-77
2021/04/27 07:49:48;;;;;;;2.33;1.40;;;9.60;44.40;;;;;;5052105;28;20056;-75
2021/04/27 07:52:14;;;;;;;4.25;2.15;;;9.60;44.90;;;;;;5051023;28;20071;-75
2021/04/27 07:54:39;;;;;;;2.80;1.40;;;9.60;44.70;;;;;;5050549;28;20033;-75
2021/04/27 07:57:05;;;;;;;2.45;1.40;;;9.60;44.60;;;;;;5050287;28;20029;-75
2021/04/27 07:59:31;;;;;;;3.53;1.60;;;9.70;45.20;;;;;;5050484;28;20066;-75
2021/04/27 08:01:57;;;;;;;2.47;1.20;;;9.70;44.60;;;;;;5051611;28;20033;-75
2021/04/27 08:04:22;;;;;;;3.55;1.73;;;9.80;45.40;;;;;;5051213;28;20029;-76
2021/04/27 08:06:48;;;;;;;2.65;1.10;;;9.80;45.40;;;;;;5050858;28;20028;-77
2021/04/27 08:09:14;;;;;;;2.92;1.38;;;9.80;46.20;;;;;;5050628;28;20029;-76
2021/04/27 08:11:40;;;;;;;2.42;1.60;;;9.90;45.70;;;;;;5052404;28;20021;-76
2021/04/27 08:14:07;;;;;;;4.05;1.80;;;9.90;46.10;;;;;;5050544;28;20381;-75
2021/04/27 08:16:33;;;;;;;4.88;1.58;;;10.00;46.40;;;;;;5051373;28;20033;-78
2021/04/27 08:19:00;;;;;;;3.70;1.67;;;10.10;46.40;;;;;;5044742;28;20039;-74
2021/04/27 08:21:27;;;;;;;5.80;2.53;;;10.10;46.20;;;;;;5033950;28;20117;-72
2021/04/27 08:23:53;;;;;;;2.63;1.77;;;10.20;46.30;;;;;;5032804;28;20598;-74
2021/04/27 08:26:19;;;;;;;2.50;1.70;;;10.20;46.10;;;;;;5051650;28;20128;-74
2021/04/27 08:28:45;;;;;;;3.47;1.60;;;10.30;45.00;;;;;;5051089;28;20115;-74
2021/04/27 08:31:11;;;;;;;2.85;1.58;;;10.30;44.80;;;;;;5032161;28;20489;-77
2021/04/27 08:33:37;;;;;;;4.10;1.95;;;10.40;45.60;;;;;;5031443;28;20067;-78
2021/04/27 08:36:04;;;;;;;3.30;1.88;;;10.40;45.60;;;;;;5047435;28;20035;-74
2021/04/27 08:38:31;;;;;;;2.03;1.33;;;10.50;44.50;;;;;;5049310;28;20067;-75
2021/04/27 08:40:58;;;;;;;3.75;1.88;;;10.50;44.90;;;;;;5040686;28;20024;-73
2021/04/27 08:43:24;;;;;;;3.83;1.70;;;10.60;45.10;;;;;;5050619;28;20060;-74
2021/04/27 08:45:50;;;;;;;5.10;1.92;;;10.60;44.10;;;;;;5031936;28;20033;-75
2021/04/27 08:48:16;;;;;;;3.33;1.65;;;10.60;44.60;;;;;;5032616;28;20095;-74
2021/04/27 08:50:43;;;;;;;3.33;1.70;;;10.60;43.70;;;;;;5050143;28;20461;-75
2021/04/27 08:53:10;;;;;;;3.05;1.70;;;10.60;43.90;;;;;;5049436;28;20029;-75
2021/04/27 08:55:36;;;;;;;5.00;1.70;;;10.70;44.90;;;;;;5050965;28;20466;-78
2021/04/27 08:58:10;;;;;;;2.60;1.60;;;10.70;44.90;;;;;;5050886;28;20059;-73
2021/04/27 09:00:36;;;;;;;5.50;1.80;;;10.70;44.10;;;;;;5055330;28;20386;-77
2021/04/27 09:03:05;;;;;;;3.40;1.83;;;10.80;43.80;;;;;;5053170;28;20033;-75
2021/04/27 09:05:34;;;;;;;4.53;1.92;;;10.80;43.60;;;;;;5054137;28;20048;-74
2021/04/27 09:08:00;;;;;;;6.40;2.00;;;10.80;43.00;;;;;;5054219;28;20017;-74
2021/04/27 09:10:39;;;;;;;5.88;2.00;;;10.90;43.20;;;;;;5056130;28;20117;-75
2021/04/27 09:13:13;;;;;;;6.15;1.90;;;11.00;44.50;;;;;;5053736;28;20036;-74
2021/04/27 09:15:43;;;;;;;3.47;2.30;;;11.00;44.10;;;;;;5053583;28;20025;-75
2021/04/27 09:18:41;;;;;;;3.75;2.20;;;11.20;44.80;;;;;;5053954;28;20408;-74
2021/04/27 09:21:09;;;;;;;4.50;2.00;;;11.20;44.10;;;;;;5002121;28;20044;-74
2021/04/27 09:23:42;;;;;;;4.85;2.28;;;11.30;44.60;;;;;;5051640;28;20017;-75
2021/04/27 09:26:16;;;;;;;4.03;2.50;;;11.30;43.80;;;;;;5049204;28;20063;-74
2021/04/27 09:28:53;;;;;;;6.63;2.60;;;11.30;44.70;;;;;;5053803;28;20115;-76
2021/04/27 09:31:32;;;;;;;5.80;2.30;;;11.40;44.60;;;;;;5053554;28;20032;-76
2021/04/27 09:34:27;;;;;;;4.60;2.70;;;11.30;44.10;;;;;;5048100;28;20017;-76
2021/04/27 09:36:58;;;;;;;4.95;2.78;;;11.40;44.10;;;;;;5067568;28;20016;-74
2021/04/27 09:39:32;;;;;;;4.15;2.50;;;11.40;43.50;;;;;;5075364;28;20098;-76
2021/04/27 09:42:07;;;;;;;5.32;2.30;;;11.50;43.20;;;;;;5073873;28;20024;-76
2021/04/27 09:44:51;;;;;;;4.55;2.38;;;11.60;45.10;;;;;;5073788;28;20024;-75
2021/04/27 09:47:22;;;;;;;4.80;2.67;;;11.70;43.60;;;;;;5074565;28;20388;-75
2021/04/27 09:49:59;;;;;;;4.65;2.30;;;11.70;43.80;;;;;;5074484;28;20169;-73
2021/04/27 09:52:25;;;;;;;4.55;2.50;;;11.80;44.80;;;;;;5073680;28;20048;-73
2021/04/27 09:55:02;;;;;;;5.03;2.35;;;11.90;43.10;;;;;;5073889;28;20529;-74
2021/04/27 09:57:30;;;;;;;4.13;2.30;;;11.80;43.20;;;;;;5073789;28;20032;-75
2021/04/27 10:00:15;;;;;;;4.43;2.30;;;11.90;43.40;;;;;;5072890;28;20064;-74
2021/04/27 10:02:41;;;;;;;5.30;2.28;;;11.90;42.20;;;;;;5061817;28;20017;-75
2021/04/27 10:05:08;;;;;;;6.35;2.83;;;12.00;42.80;;;;;;5053181;28;20104;-74
2021/04/27 10:07:34;;;;;;;5.97;2.17;;;12.00;42.20;;;;;;5051602;28;20033;-76
2021/04/27 10:09:59;;;;;;;4.88;2.78;;;12.10;42.40;;;;;;5052341;28;20025;-75
2021/04/27 10:12:25;;;;;;;4.97;2.40;;;12.10;42.20;;;;;;5052716;28;20028;-75
2021/04/27 10:14:51;;;;;;;6.03;2.67;;;12.20;42.00;;;;;;5050593;28;20029;-75
2021/04/27 10:17:19;;;;;;;3.42;2.50;;;12.30;42.50;;;;;;5054364;28;20035;-75
2021/04/27 10:19:46;;;;;;;5.53;2.80;;;12.30;42.00;;;;;;5053668;28;20032;-76
2021/04/27 10:22:12;;;;;;;4.03;2.60;;;12.30;41.50;;;;;;5052793;28;20025;-75
2021/04/27 10:24:39;;;;;;;3.72;2.38;;;12.40;41.80;;;;;;5054294;28;20021;-79
2021/04/27 10:27:05;;;;;;;5.68;2.35;;;12.40;42.30;;;;;;5052613;28;20040;-77
2021/04/27 10:29:31;;;;;;;4.75;2.50;;;12.50;42.40;;;;;;5052043;28;20028;-75
2021/04/27 10:32:16;;;;;;;4.45;3.20;;;12.60;43.10;;;;;;5048926;28;20607;-75
2021/04/27 10:34:57;;;;;;;3.90;2.38;;;12.70;42.20;;;;;;5052416;28;20477;-75
2021/04/27 10:37:29;;;;;;;6.22;2.83;;;12.70;40.90;;;;;;5053351;28;20025;-75
2021/04/27 10:39:55;;;;;;;6.95;2.47;;;12.80;41.70;;;;;;5052378;28;20473;-75
2021/04/27 10:42:31;;;;;;;7.30;2.78;;;12.90;41.70;;;;;;5052194;28;20032;-75
2021/04/27 10:45:06;;;;;;;4.40;2.45;;;12.80;41.80;;;;;;5037810;28;20434;-75
2021/04/27 10:47:41;;;;;;;10.18;3.30;;;12.90;41.30;;;;;;5034345;28;20052;-75
2021/04/27 10:50:07;;;;;;;4.28;2.33;;;13.10;41.50;;;;;;5050115;28;20033;-77
2021/04/27 10:52:35;;;;;;;4.90;2.88;;;13.20;41.20;;;;;;5054571;28;20056;-74
2021/04/27 10:55:25;;;;;;;7.93;3.58;;;13.20;41.80;;;;;;5051591;28;20366;-74
2021/04/27 10:57:52;;;;;;;5.80;2.45;;;13.30;40.50;;;;;;5052064;28;20175;-75
2021/04/27 11:00:39;;;;;;;4.70;2.53;;;13.40;40.90;;;;;;5052364;28;20078;-75
2021/04/27 11:03:13;;;;;;;7.25;2.35;;;13.30;40.40;;;;;;5046926;28;20029;-76
2021/04/27 11:06:00;;;;;;;6.35;2.80;;;13.40;39.90;;;;;;5052327;28;20029;-76
2021/04/27 11:08:47;;;;;;;5.28;2.58;;;13.50;39.40;;;;;;5051944;28;20090;-77
2021/04/27 11:11:26;;;;;;;8.30;2.80;;;13.60;41.70;;;;;;5051496;28;20029;-74
2021/04/27 11:14:13;;;;;;;3.42;2.38;;;13.60;40.80;;;;;;5050001;28;20025;-75
2021/04/27 11:16:41;;;;;;;4.50;2.67;;;13.70;39.90;;;;;;5052304;28;20088;-75
2021/04/27 11:19:32;;;;;;;4.20;2.10;;;13.80;40.90;;;;;;5065330;28;20472;-73
2021/04/27 11:22:29;;;;;;;4.85;2.67;;;13.80;40.30;;;;;;5065567;28;20248;-73
2021/04/27 11:24:55;;;;;;;7.85;3.25;;;14.10;40.70;;;;;;5031271;28;20116;-74
2021/04/27 11:27:22;;;;;;;5.28;2.80;;;14.20;38.70;;;;;;5035359;28;20112;-75
2021/04/27 11:29:57;;;;;;;7.35;3.05;;;14.10;37.70;;;;;;5048906;28;20040;-73
2021/04/27 11:32:23;;;;;;;5.68;2.80;;;14.20;39.70;;;;;;5051921;28;20025;-73
2021/04/27 11:34:53;;;;;;;5.35;2.85;;;14.20;39.10;;;;;;5045862;28;20025;-74
2021/04/27 11:37:35;;;;;;;4.50;2.65;;;14.30;39.10;;;;;;5052365;28;20403;-73
2021/04/27 11:40:14;;;;;;;5.72;2.70;;;14.40;38.50;;;;;;5042915;28;20041;-73
2021/04/27 11:42:40;;;;;;;7.68;2.85;;;14.50;39.80;;;;;;5050196;28;20029;-74
2021/04/27 11:45:09;;;;;;;5.53;2.85;;;14.60;38.80;;;;;;5052465;28;20040;-75
2021/04/27 11:47:42;;;;;;;5.43;2.80;;;14.70;37.90;;;;;;5053936;28;20013;-74
2021/04/27 11:50:22;;;;;;;7.78;2.72;;;14.80;40.10;;;;;;5051877;28;20025;-75
2021/04/27 11:52:54;;;;;;;6.03;2.80;;;14.90;38.70;;;;;;5052455;28;20051;-76
2021/04/27 11:55:20;;;;;;;5.97;2.70;;;14.90;37.80;;;;;;5069624;28;20074;-73
2021/04/27 11:57:55;;;;;;;4.45;2.70;;;15.00;36.50;;;;;;5050875;28;20072;-73
2021/04/27 12:00:28;;;;;;;5.88;2.67;;;15.20;37.90;;;;;;5052489;28;20029;-72
2021/04/27 12:02:56;;;;;;;8.70;3.00;;;15.30;39.50;;;;;;5052696;28;20017;-72
2021/04/27 12:05:23;;;;;;;6.00;2.42;;;15.30;37.80;;;;;;5052542;28;20112;-71
2021/04/27 12:07:49;;;;;;;5.43;2.70;;;15.50;36.10;;;;;;5051697;28;20407;-72
2021/04/27 12:10:14;;;;;;;4.00;2.67;;;15.70;34.80;;;;;;5047843;28;20116;-72
2021/04/27 12:12:48;;;;;;;4.07;2.50;;;15.80;35.70;;;;;;5033194;28;20078;-74
2021/04/27 12:15:14;;;;;;;3.58;2.58;;;16.00;35.80;;;;;;5031623;28;20021;-72
2021/04/27 12:17:39;;;;;;;4.85;2.20;;;16.00;33.50;;;;;;5031460;28;20059;-71
2021/04/27 12:20:18;;;;;;;4.93;2.28;;;16.10;33.40;;;;;;5032422;28;20068;-72
2021/04/27 12:22:54;;;;;;;5.03;2.58;;;16.30;34.20;;;;;;5045592;28;20461;-72
2021/04/27 12:25:26;;;;;;;4.97;2.85;;;16.50;34.90;;;;;;5046779;28;20057;-72
2021/04/27 12:28:01;;;;;;;3.13;2.28;;;16.70;33.40;;;;;;5050056;28;20051;-71
2021/04/27 12:30:31;;;;;;;5.85;2.53;;;16.80;33.50;;;;;;5038942;28;20025;-74
2021/04/27 12:33:05;;;;;;;5.47;2.63;;;17.00;34.80;;;;;;5031757;28;20026;-73
2021/04/27 12:35:35;;;;;;;5.40;2.67;;;17.10;31.90;;;;;;5050225;28;20049;-72
2021/04/27 12:38:00;;;;;;;6.72;2.47;;;17.30;31.10;;;;;;5049157;28;20132;-72
2021/04/27 12:40:29;;;;;;;4.53;2.55;;;17.50;32.30;;;;;;5033826;28;20116;-72
2021/04/27 12:43:07;;;;;;;3.40;1.92;;;17.70;30.80;;;;;;5042130;28;20021;-73
2021/04/27 12:45:48;;;;;;;4.57;2.55;;;17.80;32.30;;;;;;5014229;28;20021;-73
2021/04/27 12:48:17;;;;;;;3.83;2.30;;;17.90;28.80;;;;;;5031886;28;20390;-73
2021/04/27 12:50:44;;;;;;;4.03;2.20;;;18.10;29.80;;;;;;5030770;28;20021;-74
2021/04/27 12:53:10;;;;;;;6.05;2.92;;;18.30;30.50;;;;;;5031774;28;20033;-73
2021/04/27 12:55:38;;;;;;;6.68;2.67;;;18.40;31.60;;;;;;5032376;28;20029;-73
2021/04/27 12:58:15;;;;;;;4.18;2.50;;;18.60;30.60;;;;;;5031032;28;20024;-73
2021/04/27 13:00:58;;;;;;;4.90;2.67;;;18.80;31.50;;;;;;5014460;28;20052;-73